sensor_id;sensor_type;location;lat;lon;timestamp;P1;durP1;ratioP1;P2;durP2;ratioP2
56181;SDS011;51963;46.052;14.544;2023-09-30T00:02:11;24.90;;;16.00;;
56181;SDS011;51963;46.052;14.544;2023-09-30T00:04:38;25.38;;;17.33;;
56181;SDS011;51963;46.052;14.544;2023-09-30T00:07:04;26.90;;;17.05;;
56181;SDS011;51963;46.052;14.544;2023-09-30T00:09:30;23.85;;;16.13;;
56181;SDS011;51963;46.052;14.544;2023-09-30T00:11:56;21.95;;;15.30;;
56181;SDS011;51963;46.052;14.544;2023-09-30T00:14:25;23.15;;;15.57;;
56181;SDS011;51963;46.052;14.544;2023-09-30T00:16:50;22.95;;;15.40;;
56181;SDS011;51963;46.052;14.544;2023-09-30T00:19:16;27.90;;;17.05;;
56181;SDS011;51963;46.052;14.544;2023-09-30T00:21:42;25.73;;;16.35;;
56181;SDS011;51963;46.052;14.544;2023-09-30T00:24:08;24.48;;;16.65;;
56181;SDS011;51963;46.052;14.544;2023-09-30T00:26:34;27.48;;;17.33;;
56181;SDS011;51963;46.052;14.544;2023-09-30T00:29:01;25.08;;;17.02;;
56181;SDS011;51963;46.052;14.544;2023-09-30T00:31:30;26.15;;;18.10;;
56181;SDS011;51963;46.052;14.544;2023-09-30T00:33:57;24.08;;;17.10;;
56181;SDS011;51963;46.052;14.544;2023-09-30T00:36:23;25.02;;;16.85;;
56181;SDS011;51963;46.052;14.544;2023-09-30T00:38:48;24.08;;;16.13;;
56181;SDS011;51963;46.052;14.544;2023-09-30T00:41:14;24.88;;;15.88;;
56181;SDS011;51963;46.052;14.544;2023-09-30T00:43:40;24.52;;;17.35;;
56181;SDS011;51963;46.052;14.544;2023-09-30T00:46:09;24.60;;;17.23;;
56181;SDS011;51963;46.052;14.544;2023-09-30T00:48:58;24.60;;;17.40;;
56181;SDS011;51963;46.052;14.544;2023-09-30T00:51:25;23.77;;;17.30;;
56181;SDS011;51963;46.052;14.544;2023-09-30T00:53:52;26.02;;;17.80;;
56181;SDS011;51963;46.052;14.544;2023-09-30T00:56:20;25.73;;;17.00;;
56181;SDS011;51963;46.052;14.544;2023-09-30T00:58:49;28.20;;;17.33;;
56181;SDS011;51963;46.052;14.544;2023-09-30T01:01:18;20.73;;;15.68;;
56181;SDS011;51963;46.052;14.544;2023-09-30T01:03:45;22.63;;;15.57;;
56181;SDS011;51963;46.052;14.544;2023-09-30T01:06:12;22.58;;;14.68;;
56181;SDS011;51963;46.052;14.544;2023-09-30T01:08:38;22.98;;;16.33;;
56181;SDS011;51963;46.052;14.544;2023-09-30T01:11:04;21.95;;;16.17;;
56181;SDS011;51963;46.052;14.544;2023-09-30T01:13:34;23.30;;;16.88;;
56181;SDS011;51963;46.052;14.544;2023-09-30T01:16:04;25.58;;;17.63;;
56181;SDS011;51963;46.052;14.544;2023-09-30T01:18:37;27.33;;;17.13;;
56181;SDS011;51963;46.052;14.544;2023-09-30T01:21:04;27.60;;;18.33;;
56181;SDS011;51963;46.052;14.544;2023-09-30T01:23:31;25.75;;;16.73;;
56181;SDS011;51963;46.052;14.544;2023-09-30T01:26:05;25.85;;;16.38;;
56181;SDS011;51963;46.052;14.544;2023-09-30T01:28:34;20.83;;;15.07;;
56181;SDS011;51963;46.052;14.544;2023-09-30T01:31:00;29.13;;;18.17;;
56181;SDS011;51963;46.052;14.544;2023-09-30T01:33:27;24.65;;;18.17;;
56181;SDS011;51963;46.052;14.544;2023-09-30T01:35:53;27.10;;;18.35;;
56181;SDS011;51963;46.052;14.544;2023-09-30T01:38:19;27.90;;;18.20;;
56181;SDS011;51963;46.052;14.544;2023-09-30T01:40:45;24.13;;;15.73;;
56181;SDS011;51963;46.052;14.544;2023-09-30T01:43:12;27.83;;;18.02;;
56181;SDS011;51963;46.052;14.544;2023-09-30T01:45:42;22.73;;;16.40;;
56181;SDS011;51963;46.052;14.544;2023-09-30T01:48:08;28.13;;;18.90;;
56181;SDS011;51963;46.052;14.544;2023-09-30T01:50:37;20.58;;;15.50;;
56181;SDS011;51963;46.052;14.544;2023-09-30T01:53:04;19.27;;;14.80;;
56181;SDS011;51963;46.052;14.544;2023-09-30T01:55:37;24.80;;;15.82;;
56181;SDS011;51963;46.052;14.544;2023-09-30T01:58:03;20.65;;;14.52;;
56181;SDS011;51963;46.052;14.544;2023-09-30T02:00:29;24.25;;;15.80;;
56181;SDS011;51963;46.052;14.544;2023-09-30T02:02:55;23.75;;;17.17;;
56181;SDS011;51963;46.052;14.544;2023-09-30T02:05:22;21.42;;;15.82;;
56181;SDS011;51963;46.052;14.544;2023-09-30T02:07:49;22.35;;;15.73;;
56181;SDS011;51963;46.052;14.544;2023-09-30T02:10:16;23.02;;;16.10;;
56181;SDS011;51963;46.052;14.544;2023-09-30T02:12:46;26.08;;;17.00;;
56181;SDS011;51963;46.052;14.544;2023-09-30T02:15:12;22.30;;;15.75;;
56181;SDS011;51963;46.052;14.544;2023-09-30T02:17:39;24.17;;;15.65;;
56181;SDS011;51963;46.052;14.544;2023-09-30T02:20:05;23.42;;;15.77;;
56181;SDS011;51963;46.052;14.544;2023-09-30T02:22:38;23.15;;;15.68;;
56181;SDS011;51963;46.052;14.544;2023-09-30T02:25:05;23.17;;;15.07;;
56181;SDS011;51963;46.052;14.544;2023-09-30T02:27:33;23.38;;;15.70;;
56181;SDS011;51963;46.052;14.544;2023-09-30T02:30:00;22.42;;;14.90;;
56181;SDS011;51963;46.052;14.544;2023-09-30T02:32:26;28.20;;;17.35;;
56181;SDS011;51963;46.052;14.544;2023-09-30T02:34:52;24.02;;;16.67;;
56181;SDS011;51963;46.052;14.544;2023-09-30T02:37:18;22.83;;;16.98;;
56181;SDS011;51963;46.052;14.544;2023-09-30T02:39:44;25.00;;;16.98;;
56181;SDS011;51963;46.052;14.544;2023-09-30T02:42:10;24.40;;;18.13;;
56181;SDS011;51963;46.052;14.544;2023-09-30T02:44:36;25.65;;;17.80;;
56181;SDS011;51963;46.052;14.544;2023-09-30T02:47:02;24.65;;;17.13;;
56181;SDS011;51963;46.052;14.544;2023-09-30T02:49:27;25.38;;;17.20;;
56181;SDS011;51963;46.052;14.544;2023-09-30T02:51:54;23.77;;;16.85;;
56181;SDS011;51963;46.052;14.544;2023-09-30T02:54:20;27.98;;;17.95;;
56181;SDS011;51963;46.052;14.544;2023-09-30T02:56:46;27.27;;;18.52;;
56181;SDS011;51963;46.052;14.544;2023-09-30T02:59:12;25.05;;;17.42;;
56181;SDS011;51963;46.052;14.544;2023-09-30T03:01:39;24.27;;;17.77;;
56181;SDS011;51963;46.052;14.544;2023-09-30T03:04:06;32.15;;;18.15;;
56181;SDS011;51963;46.052;14.544;2023-09-30T03:06:33;27.13;;;17.05;;
56181;SDS011;51963;46.052;14.544;2023-09-30T03:09:02;24.35;;;18.15;;
56181;SDS011;51963;46.052;14.544;2023-09-30T03:11:30;26.53;;;17.83;;
56181;SDS011;51963;46.052;14.544;2023-09-30T03:13:56;27.27;;;18.30;;
56181;SDS011;51963;46.052;14.544;2023-09-30T03:16:23;29.08;;;19.17;;
56181;SDS011;51963;46.052;14.544;2023-09-30T03:18:50;30.02;;;18.30;;
56181;SDS011;51963;46.052;14.544;2023-09-30T03:21:17;28.40;;;19.33;;
56181;SDS011;51963;46.052;14.544;2023-09-30T03:23:43;26.00;;;18.52;;
56181;SDS011;51963;46.052;14.544;2023-09-30T03:26:09;28.13;;;19.42;;
56181;SDS011;51963;46.052;14.544;2023-09-30T03:28:36;29.83;;;19.92;;
56181;SDS011;51963;46.052;14.544;2023-09-30T03:31:03;35.88;;;23.75;;
56181;SDS011;51963;46.052;14.544;2023-09-30T03:33:32;33.58;;;21.75;;
56181;SDS011;51963;46.052;14.544;2023-09-30T03:35:58;29.73;;;21.52;;
56181;SDS011;51963;46.052;14.544;2023-09-30T03:38:25;30.75;;;20.85;;
56181;SDS011;51963;46.052;14.544;2023-09-30T03:40:52;30.03;;;20.87;;
56181;SDS011;51963;46.052;14.544;2023-09-30T03:43:20;32.35;;;20.20;;
56181;SDS011;51963;46.052;14.544;2023-09-30T03:45:46;30.02;;;19.88;;
56181;SDS011;51963;46.052;14.544;2023-09-30T03:48:12;31.67;;;19.58;;
56181;SDS011;51963;46.052;14.544;2023-09-30T03:50:38;29.95;;;20.08;;
56181;SDS011;51963;46.052;14.544;2023-09-30T03:53:04;34.03;;;20.67;;
56181;SDS011;51963;46.052;14.544;2023-09-30T03:55:32;27.23;;;18.15;;
56181;SDS011;51963;46.052;14.544;2023-09-30T03:57:58;26.80;;;18.13;;
56181;SDS011;51963;46.052;14.544;2023-09-30T04:00:25;29.23;;;18.85;;
56181;SDS011;51963;46.052;14.544;2023-09-30T04:02:51;24.25;;;16.45;;
56181;SDS011;51963;46.052;14.544;2023-09-30T04:05:24;22.80;;;16.48;;
56181;SDS011;51963;46.052;14.544;2023-09-30T04:08:02;27.08;;;16.25;;
56181;SDS011;51963;46.052;14.544;2023-09-30T04:10:28;24.98;;;17.30;;
56181;SDS011;51963;46.052;14.544;2023-09-30T04:12:55;23.40;;;16.80;;
56181;SDS011;51963;46.052;14.544;2023-09-30T04:15:21;25.85;;;17.77;;
56181;SDS011;51963;46.052;14.544;2023-09-30T04:17:50;28.60;;;18.00;;
56181;SDS011;51963;46.052;14.544;2023-09-30T04:20:18;27.13;;;18.38;;
56181;SDS011;51963;46.052;14.544;2023-09-30T04:22:48;24.45;;;17.50;;
56181;SDS011;51963;46.052;14.544;2023-09-30T04:25:15;26.33;;;18.27;;
56181;SDS011;51963;46.052;14.544;2023-09-30T04:27:42;30.08;;;18.88;;
56181;SDS011;51963;46.052;14.544;2023-09-30T04:30:08;27.33;;;18.58;;
56181;SDS011;51963;46.052;14.544;2023-09-30T04:32:36;24.98;;;17.80;;
56181;SDS011;51963;46.052;14.544;2023-09-30T04:35:06;26.13;;;17.70;;
56181;SDS011;51963;46.052;14.544;2023-09-30T04:37:36;27.95;;;18.25;;
56181;SDS011;51963;46.052;14.544;2023-09-30T04:40:06;26.50;;;17.67;;
56181;SDS011;51963;46.052;14.544;2023-09-30T04:42:34;29.75;;;18.75;;
56181;SDS011;51963;46.052;14.544;2023-09-30T04:45:05;29.13;;;19.77;;
56181;SDS011;51963;46.052;14.544;2023-09-30T04:47:35;35.13;;;20.95;;
56181;SDS011;51963;46.052;14.544;2023-09-30T04:50:00;33.63;;;20.55;;
56181;SDS011;51963;46.052;14.544;2023-09-30T04:52:30;31.40;;;20.27;;
56181;SDS011;51963;46.052;14.544;2023-09-30T04:54:56;31.00;;;19.23;;
56181;SDS011;51963;46.052;14.544;2023-09-30T04:57:22;29.20;;;20.30;;
56181;SDS011;51963;46.052;14.544;2023-09-30T04:59:47;37.30;;;21.83;;
56181;SDS011;51963;46.052;14.544;2023-09-30T05:02:13;32.95;;;22.70;;
56181;SDS011;51963;46.052;14.544;2023-09-30T05:04:41;33.63;;;21.35;;
56181;SDS011;51963;46.052;14.544;2023-09-30T05:07:08;36.47;;;23.00;;
56181;SDS011;51963;46.052;14.544;2023-09-30T05:09:34;40.95;;;22.92;;
56181;SDS011;51963;46.052;14.544;2023-09-30T05:11:59;38.60;;;23.48;;
56181;SDS011;51963;46.052;14.544;2023-09-30T05:14:25;42.22;;;25.42;;
56181;SDS011;51963;46.052;14.544;2023-09-30T05:16:52;55.63;;;26.63;;
56181;SDS011;51963;46.052;14.544;2023-09-30T05:19:18;46.10;;;26.02;;
56181;SDS011;51963;46.052;14.544;2023-09-30T05:21:46;49.10;;;29.08;;
56181;SDS011;51963;46.052;14.544;2023-09-30T05:24:12;53.40;;;28.52;;
56181;SDS011;51963;46.052;14.544;2023-09-30T05:26:38;52.95;;;28.25;;
56181;SDS011;51963;46.052;14.544;2023-09-30T05:29:03;48.90;;;28.20;;
56181;SDS011;51963;46.052;14.544;2023-09-30T05:31:30;50.75;;;26.88;;
56181;SDS011;51963;46.052;14.544;2023-09-30T05:33:56;43.22;;;24.58;;
56181;SDS011;51963;46.052;14.544;2023-09-30T05:36:22;42.10;;;25.08;;
56181;SDS011;51963;46.052;14.544;2023-09-30T05:38:48;51.28;;;26.98;;
56181;SDS011;51963;46.052;14.544;2023-09-30T05:41:16;54.60;;;27.40;;
56181;SDS011;51963;46.052;14.544;2023-09-30T05:43:42;34.50;;;22.98;;
56181;SDS011;51963;46.052;14.544;2023-09-30T05:46:09;45.13;;;26.73;;
56181;SDS011;51963;46.052;14.544;2023-09-30T05:48:34;44.75;;;27.88;;
56181;SDS011;51963;46.052;14.544;2023-09-30T05:51:00;57.85;;;29.25;;
56181;SDS011;51963;46.052;14.544;2023-09-30T05:53:28;60.80;;;29.55;;
56181;SDS011;51963;46.052;14.544;2023-09-30T05:55:54;64.30;;;29.23;;
56181;SDS011;51963;46.052;14.544;2023-09-30T05:58:19;45.10;;;28.63;;
56181;SDS011;51963;46.052;14.544;2023-09-30T06:00:45;57.30;;;31.33;;
56181;SDS011;51963;46.052;14.544;2023-09-30T06:03:11;48.45;;;29.40;;
56181;SDS011;51963;46.052;14.544;2023-09-30T06:05:40;51.28;;;30.25;;
56181;SDS011;51963;46.052;14.544;2023-09-30T06:08:07;53.17;;;31.00;;
56181;SDS011;51963;46.052;14.544;2023-09-30T06:10:42;43.38;;;28.90;;
56181;SDS011;51963;46.052;14.544;2023-09-30T06:13:08;53.97;;;31.50;;
56181;SDS011;51963;46.052;14.544;2023-09-30T06:15:38;46.67;;;30.63;;
56181;SDS011;51963;46.052;14.544;2023-09-30T06:18:09;49.33;;;29.95;;
56181;SDS011;51963;46.052;14.544;2023-09-30T06:20:38;46.90;;;28.73;;
56181;SDS011;51963;46.052;14.544;2023-09-30T06:23:04;44.95;;;27.83;;
56181;SDS011;51963;46.052;14.544;2023-09-30T06:25:30;38.83;;;26.17;;
56181;SDS011;51963;46.052;14.544;2023-09-30T06:27:58;44.15;;;28.27;;
56181;SDS011;51963;46.052;14.544;2023-09-30T06:30:23;41.25;;;27.35;;
56181;SDS011;51963;46.052;14.544;2023-09-30T06:32:58;39.47;;;26.88;;
56181;SDS011;51963;46.052;14.544;2023-09-30T06:35:30;38.70;;;25.98;;
56181;SDS011;51963;46.052;14.544;2023-09-30T06:37:58;34.00;;;24.02;;
56181;SDS011;51963;46.052;14.544;2023-09-30T06:40:24;33.05;;;24.40;;
56181;SDS011;51963;46.052;14.544;2023-09-30T06:42:50;36.65;;;24.90;;
56181;SDS011;51963;46.052;14.544;2023-09-30T06:45:17;37.47;;;23.83;;
56181;SDS011;51963;46.052;14.544;2023-09-30T06:47:43;31.52;;;22.45;;
56181;SDS011;51963;46.052;14.544;2023-09-30T06:50:11;33.35;;;22.23;;
56181;SDS011;51963;46.052;14.544;2023-09-30T06:52:42;28.13;;;20.48;;
56181;SDS011;51963;46.052;14.544;2023-09-30T06:55:10;29.75;;;20.92;;
56181;SDS011;51963;46.052;14.544;2023-09-30T06:57:39;30.83;;;21.35;;
56181;SDS011;51963;46.052;14.544;2023-09-30T07:02:37;27.77;;;19.08;;
56181;SDS011;51963;46.052;14.544;2023-09-30T07:05:09;29.15;;;19.63;;
56181;SDS011;51963;46.052;14.544;2023-09-30T07:07:36;27.48;;;18.15;;
56181;SDS011;51963;46.052;14.544;2023-09-30T07:10:02;26.30;;;18.17;;
56181;SDS011;51963;46.052;14.544;2023-09-30T07:12:32;25.67;;;18.27;;
56181;SDS011;51963;46.052;14.544;2023-09-30T07:17:27;24.10;;;17.65;;
56181;SDS011;51963;46.052;14.544;2023-09-30T07:19:53;24.40;;;17.05;;
56181;SDS011;51963;46.052;14.544;2023-09-30T07:22:19;25.35;;;16.70;;
56181;SDS011;51963;46.052;14.544;2023-09-30T07:24:44;25.00;;;18.70;;
56181;SDS011;51963;46.052;14.544;2023-09-30T07:27:10;26.55;;;17.67;;
56181;SDS011;51963;46.052;14.544;2023-09-30T07:29:36;20.67;;;16.13;;
56181;SDS011;51963;46.052;14.544;2023-09-30T07:32:02;18.92;;;14.55;;
56181;SDS011;51963;46.052;14.544;2023-09-30T07:34:28;25.25;;;16.88;;
56181;SDS011;51963;46.052;14.544;2023-09-30T07:36:54;21.73;;;14.73;;
56181;SDS011;51963;46.052;14.544;2023-09-30T07:39:20;23.10;;;15.60;;
56181;SDS011;51963;46.052;14.544;2023-09-30T07:41:46;20.08;;;14.77;;
56181;SDS011;51963;46.052;14.544;2023-09-30T07:44:12;23.15;;;15.20;;
56181;SDS011;51963;46.052;14.544;2023-09-30T07:46:38;21.80;;;15.13;;
56181;SDS011;51963;46.052;14.544;2023-09-30T07:49:03;23.48;;;15.30;;
56181;SDS011;51963;46.052;14.544;2023-09-30T07:51:30;20.52;;;14.90;;
56181;SDS011;51963;46.052;14.544;2023-09-30T07:53:55;22.23;;;15.50;;
56181;SDS011;51963;46.052;14.544;2023-09-30T07:56:22;28.80;;;17.10;;
56181;SDS011;51963;46.052;14.544;2023-09-30T07:58:48;23.50;;;17.08;;
56181;SDS011;51963;46.052;14.544;2023-09-30T08:01:14;22.50;;;15.65;;
56181;SDS011;51963;46.052;14.544;2023-09-30T08:03:43;23.15;;;15.30;;
56181;SDS011;51963;46.052;14.544;2023-09-30T08:06:09;31.75;;;20.63;;
56181;SDS011;51963;46.052;14.544;2023-09-30T08:08:34;26.05;;;19.00;;
56181;SDS011;51963;46.052;14.544;2023-09-30T08:11:01;25.13;;;17.77;;
56181;SDS011;51963;46.052;14.544;2023-09-30T08:13:27;26.48;;;18.13;;
56181;SDS011;51963;46.052;14.544;2023-09-30T08:15:54;23.57;;;16.13;;
56181;SDS011;51963;46.052;14.544;2023-09-30T08:18:21;26.00;;;17.10;;
56181;SDS011;51963;46.052;14.544;2023-09-30T08:20:47;25.75;;;16.77;;
56181;SDS011;51963;46.052;14.544;2023-09-30T08:23:13;23.77;;;16.63;;
56181;SDS011;51963;46.052;14.544;2023-09-30T08:25:38;21.25;;;15.45;;
56181;SDS011;51963;46.052;14.544;2023-09-30T08:28:04;26.85;;;16.08;;
56181;SDS011;51963;46.052;14.544;2023-09-30T08:30:30;20.08;;;14.85;;
56181;SDS011;51963;46.052;14.544;2023-09-30T08:32:58;20.67;;;14.75;;
56181;SDS011;51963;46.052;14.544;2023-09-30T08:35:24;26.00;;;16.77;;
56181;SDS011;51963;46.052;14.544;2023-09-30T08:37:50;24.80;;;16.25;;
56181;SDS011;51963;46.052;14.544;2023-09-30T08:40:19;41.10;;;25.00;;
56181;SDS011;51963;46.052;14.544;2023-09-30T08:42:49;36.75;;;21.73;;
56181;SDS011;51963;46.052;14.544;2023-09-30T08:45:17;33.47;;;20.63;;
56181;SDS011;51963;46.052;14.544;2023-09-30T08:47:47;37.92;;;22.08;;
56181;SDS011;51963;46.052;14.544;2023-09-30T08:50:13;33.55;;;22.13;;
56181;SDS011;51963;46.052;14.544;2023-09-30T08:52:39;29.73;;;18.90;;
56181;SDS011;51963;46.052;14.544;2023-09-30T08:55:06;29.42;;;16.98;;
56181;SDS011;51963;46.052;14.544;2023-09-30T08:57:42;33.20;;;17.38;;
56181;SDS011;51963;46.052;14.544;2023-09-30T09:00:09;30.83;;;19.27;;
56181;SDS011;51963;46.052;14.544;2023-09-30T09:02:39;29.02;;;18.35;;
56181;SDS011;51963;46.052;14.544;2023-09-30T09:05:06;27.40;;;17.77;;
56181;SDS011;51963;46.052;14.544;2023-09-30T09:07:32;27.30;;;18.38;;
56181;SDS011;51963;46.052;14.544;2023-09-30T09:10:11;26.83;;;19.73;;
56181;SDS011;51963;46.052;14.544;2023-09-30T09:12:39;28.77;;;19.23;;
56181;SDS011;51963;46.052;14.544;2023-09-30T09:15:05;30.17;;;18.23;;
56181;SDS011;51963;46.052;14.544;2023-09-30T09:17:47;25.15;;;17.95;;
56181;SDS011;51963;46.052;14.544;2023-09-30T09:20:21;29.48;;;17.73;;
56181;SDS011;51963;46.052;14.544;2023-09-30T09:22:50;28.75;;;18.00;;
56181;SDS011;51963;46.052;14.544;2023-09-30T09:25:19;29.27;;;18.15;;
56181;SDS011;51963;46.052;14.544;2023-09-30T09:27:48;25.92;;;16.98;;
56181;SDS011;51963;46.052;14.544;2023-09-30T09:30:18;24.45;;;16.80;;
56181;SDS011;51963;46.052;14.544;2023-09-30T09:33:03;21.08;;;14.35;;
56181;SDS011;51963;46.052;14.544;2023-09-30T09:35:33;20.60;;;15.65;;
56181;SDS011;51963;46.052;14.544;2023-09-30T09:38:05;22.60;;;15.30;;
56181;SDS011;51963;46.052;14.544;2023-09-30T09:42:59;22.65;;;15.60;;
56181;SDS011;51963;46.052;14.544;2023-09-30T09:45:27;22.67;;;15.48;;
56181;SDS011;51963;46.052;14.544;2023-09-30T09:47:56;19.75;;;13.63;;
56181;SDS011;51963;46.052;14.544;2023-09-30T09:50:27;19.05;;;14.55;;
56181;SDS011;51963;46.052;14.544;2023-09-30T09:52:53;23.33;;;15.00;;
56181;SDS011;51963;46.052;14.544;2023-09-30T09:55:21;23.70;;;13.77;;
56181;SDS011;51963;46.052;14.544;2023-09-30T10:00:15;22.77;;;13.93;;
56181;SDS011;51963;46.052;14.544;2023-09-30T10:02:45;21.77;;;13.50;;
56181;SDS011;51963;46.052;14.544;2023-09-30T10:05:14;16.90;;;12.35;;
56181;SDS011;51963;46.052;14.544;2023-09-30T10:07:43;17.20;;;11.27;;
56181;SDS011;51963;46.052;14.544;2023-09-30T10:10:14;16.60;;;11.10;;
56181;SDS011;51963;46.052;14.544;2023-09-30T10:12:42;15.55;;;10.32;;
56181;SDS011;51963;46.052;14.544;2023-09-30T10:20:34;14.20;;;10.68;;
56181;SDS011;51963;46.052;14.544;2023-09-30T10:23:18;17.05;;;10.02;;
56181;SDS011;51963;46.052;14.544;2023-09-30T10:25:50;15.00;;;9.98;;
56181;SDS011;51963;46.052;14.544;2023-09-30T10:28:35;15.60;;;10.95;;
56181;SDS011;51963;46.052;14.544;2023-09-30T10:31:09;18.67;;;13.07;;
56181;SDS011;51963;46.052;14.544;2023-09-30T10:36:46;14.85;;;11.85;;
56181;SDS011;51963;46.052;14.544;2023-09-30T10:39:12;15.57;;;12.33;;
56181;SDS011;51963;46.052;14.544;2023-09-30T10:44:31;16.40;;;11.27;;
56181;SDS011;51963;46.052;14.544;2023-09-30T10:46:54;14.45;;;10.63;;
56181;SDS011;51963;46.052;14.544;2023-09-30T10:51:53;17.40;;;11.73;;
56181;SDS011;51963;46.052;14.544;2023-09-30T10:54:23;17.48;;;12.90;;
56181;SDS011;51963;46.052;14.544;2023-09-30T10:56:51;18.35;;;13.40;;
56181;SDS011;51963;46.052;14.544;2023-09-30T10:59:21;20.75;;;14.27;;
56181;SDS011;51963;46.052;14.544;2023-09-30T11:01:52;18.50;;;14.52;;
56181;SDS011;51963;46.052;14.544;2023-09-30T11:04:21;17.63;;;12.80;;
56181;SDS011;51963;46.052;14.544;2023-09-30T11:06:47;18.55;;;12.60;;
56181;SDS011;51963;46.052;14.544;2023-09-30T11:09:20;22.20;;;12.73;;
56181;SDS011;51963;46.052;14.544;2023-09-30T11:11:48;19.33;;;13.60;;
56181;SDS011;51963;46.052;14.544;2023-09-30T11:16:47;18.83;;;13.32;;
56181;SDS011;51963;46.052;14.544;2023-09-30T11:19:14;26.40;;;13.15;;
56181;SDS011;51963;46.052;14.544;2023-09-30T11:21:40;17.67;;;12.25;;
56181;SDS011;51963;46.052;14.544;2023-09-30T11:24:08;15.07;;;11.85;;
56181;SDS011;51963;46.052;14.544;2023-09-30T11:26:35;17.70;;;10.85;;
56181;SDS011;51963;46.052;14.544;2023-09-30T11:29:05;14.07;;;9.70;;
56181;SDS011;51963;46.052;14.544;2023-09-30T11:31:31;14.05;;;10.32;;
56181;SDS011;51963;46.052;14.544;2023-09-30T11:34:00;13.35;;;10.35;;
56181;SDS011;51963;46.052;14.544;2023-09-30T11:36:29;15.82;;;10.35;;
56181;SDS011;51963;46.052;14.544;2023-09-30T11:38:59;14.73;;;10.43;;
56181;SDS011;51963;46.052;14.544;2023-09-30T11:41:37;12.48;;;10.50;;
56181;SDS011;51963;46.052;14.544;2023-09-30T11:44:07;18.30;;;9.65;;
56181;SDS011;51963;46.052;14.544;2023-09-30T11:52:13;17.77;;;10.75;;
56181;SDS011;51963;46.052;14.544;2023-09-30T11:54:43;20.05;;;11.00;;
56181;SDS011;51963;46.052;14.544;2023-09-30T11:59:39;15.43;;;10.90;;
56181;SDS011;51963;46.052;14.544;2023-09-30T12:02:09;18.98;;;11.27;;
56181;SDS011;51963;46.052;14.544;2023-09-30T12:04:36;15.77;;;10.82;;
56181;SDS011;51963;46.052;14.544;2023-09-30T12:07:04;18.75;;;11.68;;
56181;SDS011;51963;46.052;14.544;2023-09-30T12:09:32;14.93;;;10.57;;
56181;SDS011;51963;46.052;14.544;2023-09-30T12:12:00;17.13;;;11.02;;
56181;SDS011;51963;46.052;14.544;2023-09-30T12:14:26;19.20;;;11.35;;
56181;SDS011;51963;46.052;14.544;2023-09-30T12:16:54;17.55;;;10.90;;
56181;SDS011;51963;46.052;14.544;2023-09-30T12:19:20;17.23;;;9.93;;
56181;SDS011;51963;46.052;14.544;2023-09-30T12:21:48;12.45;;;8.68;;
56181;SDS011;51963;46.052;14.544;2023-09-30T12:24:16;9.98;;;8.52;;
56181;SDS011;51963;46.052;14.544;2023-09-30T12:26:45;17.65;;;9.68;;
56181;SDS011;51963;46.052;14.544;2023-09-30T12:29:20;16.45;;;9.43;;
56181;SDS011;51963;46.052;14.544;2023-09-30T12:31:51;18.08;;;10.57;;
56181;SDS011;51963;46.052;14.544;2023-09-30T12:34:17;18.52;;;10.77;;
56181;SDS011;51963;46.052;14.544;2023-09-30T12:36:43;16.98;;;10.40;;
56181;SDS011;51963;46.052;14.544;2023-09-30T12:39:09;12.93;;;9.73;;
56181;SDS011;51963;46.052;14.544;2023-09-30T12:41:43;16.70;;;9.88;;
56181;SDS011;51963;46.052;14.544;2023-09-30T12:44:09;16.38;;;9.65;;
56181;SDS011;51963;46.052;14.544;2023-09-30T12:46:40;12.68;;;9.45;;
56181;SDS011;51963;46.052;14.544;2023-09-30T12:49:06;17.00;;;9.52;;
56181;SDS011;51963;46.052;14.544;2023-09-30T12:51:35;16.58;;;9.52;;
56181;SDS011;51963;46.052;14.544;2023-09-30T12:54:02;12.63;;;8.40;;
56181;SDS011;51963;46.052;14.544;2023-09-30T12:56:28;11.80;;;8.00;;
56181;SDS011;51963;46.052;14.544;2023-09-30T12:58:59;10.65;;;8.20;;
56181;SDS011;51963;46.052;14.544;2023-09-30T13:01:25;13.93;;;8.38;;
56181;SDS011;51963;46.052;14.544;2023-09-30T13:03:51;12.38;;;9.30;;
56181;SDS011;51963;46.052;14.544;2023-09-30T13:06:17;12.45;;;9.13;;
56181;SDS011;51963;46.052;14.544;2023-09-30T13:08:46;14.63;;;9.13;;
56181;SDS011;51963;46.052;14.544;2023-09-30T13:11:12;17.77;;;9.02;;
56181;SDS011;51963;46.052;14.544;2023-09-30T13:13:39;15.55;;;8.13;;
56181;SDS011;51963;46.052;14.544;2023-09-30T13:16:05;11.52;;;8.30;;
56181;SDS011;51963;46.052;14.544;2023-09-30T13:18:33;10.90;;;7.78;;
56181;SDS011;51963;46.052;14.544;2023-09-30T13:20:59;9.55;;;7.85;;
56181;SDS011;51963;46.052;14.544;2023-09-30T13:23:25;16.17;;;8.63;;
56181;SDS011;51963;46.052;14.544;2023-09-30T13:25:55;12.73;;;8.05;;
56181;SDS011;51963;46.052;14.544;2023-09-30T13:28:21;13.23;;;8.13;;
56181;SDS011;51963;46.052;14.544;2023-09-30T13:30:46;8.98;;;7.40;;
56181;SDS011;51963;46.052;14.544;2023-09-30T13:33:13;10.82;;;6.80;;
56181;SDS011;51963;46.052;14.544;2023-09-30T13:35:39;8.68;;;7.10;;
56181;SDS011;51963;46.052;14.544;2023-09-30T13:38:04;11.88;;;7.95;;
56181;SDS011;51963;46.052;14.544;2023-09-30T13:40:30;8.25;;;6.53;;
56181;SDS011;51963;46.052;14.544;2023-09-30T13:42:56;9.52;;;6.82;;
56181;SDS011;51963;46.052;14.544;2023-09-30T13:45:25;9.10;;;7.32;;
56181;SDS011;51963;46.052;14.544;2023-09-30T13:47:53;9.85;;;7.00;;
56181;SDS011;51963;46.052;14.544;2023-09-30T13:50:19;9.18;;;6.97;;
56181;SDS011;51963;46.052;14.544;2023-09-30T13:52:44;9.85;;;6.75;;
56181;SDS011;51963;46.052;14.544;2023-09-30T13:55:10;9.87;;;6.20;;
56181;SDS011;51963;46.052;14.544;2023-09-30T13:57:47;9.82;;;7.05;;
56181;SDS011;51963;46.052;14.544;2023-09-30T14:00:14;8.95;;;6.80;;
56181;SDS011;51963;46.052;14.544;2023-09-30T14:02:41;10.18;;;6.85;;
56181;SDS011;51963;46.052;14.544;2023-09-30T14:05:08;9.63;;;6.20;;
56181;SDS011;51963;46.052;14.544;2023-09-30T14:07:35;9.77;;;6.45;;
56181;SDS011;51963;46.052;14.544;2023-09-30T14:10:02;9.75;;;5.88;;
56181;SDS011;51963;46.052;14.544;2023-09-30T14:12:29;8.73;;;5.88;;
56181;SDS011;51963;46.052;14.544;2023-09-30T14:14:58;8.88;;;6.30;;
56181;SDS011;51963;46.052;14.544;2023-09-30T14:17:24;9.10;;;6.35;;
56181;SDS011;51963;46.052;14.544;2023-09-30T14:19:50;9.88;;;6.22;;
56181;SDS011;51963;46.052;14.544;2023-09-30T14:22:16;11.57;;;6.22;;
56181;SDS011;51963;46.052;14.544;2023-09-30T14:24:44;8.15;;;5.78;;
56181;SDS011;51963;46.052;14.544;2023-09-30T14:27:10;7.87;;;5.87;;
56181;SDS011;51963;46.052;14.544;2023-09-30T14:29:36;7.82;;;5.70;;
56181;SDS011;51963;46.052;14.544;2023-09-30T14:32:01;9.65;;;5.95;;
56181;SDS011;51963;46.052;14.544;2023-09-30T14:34:32;9.70;;;6.30;;
56181;SDS011;51963;46.052;14.544;2023-09-30T14:37:02;8.87;;;5.63;;
56181;SDS011;51963;46.052;14.544;2023-09-30T14:39:28;8.65;;;6.05;;
56181;SDS011;51963;46.052;14.544;2023-09-30T14:41:57;9.55;;;5.80;;
56181;SDS011;51963;46.052;14.544;2023-09-30T14:44:32;10.63;;;6.43;;
56181;SDS011;51963;46.052;14.544;2023-09-30T14:46:58;10.57;;;6.30;;
56181;SDS011;51963;46.052;14.544;2023-09-30T14:49:26;10.18;;;6.43;;